Time;durP1;ratioP1;P1;durP2;ratioP2;P2;SDS_P1;SDS_P2;PMS_P1;PMS_P2;Temp;Humidity;BMP_temperature;BMP_pressure;BME280_temperature;BME280_humidity;BME280_pressure;Samples;Min_cycle;Max_cycle;Signal;HPM_P1;HPM_P2
2020/12/08 00:00:05;;;;;;;34.33;19.30;;;;;;;2.24;100.00;99996.28;4998611;28;20816;-75
2020/12/08 00:02:31;;;;;;;35.00;19.57;;;;;;;2.26;100.00;99997.16;5017476;28;20559;-71
2020/12/08 00:04:57;;;;;;;32.07;18.53;;;;;;;2.25;100.00;99992.81;4990936;28;20096;-70
2020/12/08 00:07:23;;;;;;;43.57;23.53;;;;;;;2.35;100.00;100004.13;5016785;28;20037;-71
2020/12/08 00:09:49;;;;;;;39.23;22.27;;;;;;;2.40;100.00;100001.56;5000963;28;20046;-75
2020/12/08 00:12:15;;;;;;;36.53;20.97;;;;;;;2.42;100.00;100005.03;5027594;28;20045;-70
2020/12/08 00:14:41;;;;;;;39.70;21.73;;;;;;;2.41;100.00;100001.53;5027190;28;20091;-70
2020/12/08 00:17:08;;;;;;;37.67;20.30;;;;;;;2.41;100.00;99992.84;5016501;28;20046;-71
2020/12/08 00:19:34;;;;;;;35.43;20.07;;;;;;;2.41;100.00;99987.66;5000816;28;20034;-70
2020/12/08 00:22:00;;;;;;;38.13;20.47;;;;;;;2.42;100.00;99989.38;5017558;28;20519;-71
2020/12/08 00:24:26;;;;;;;43.00;22.53;;;;;;;2.45;100.00;99992.00;5021507;28;20064;-75
2020/12/08 00:26:52;;;;;;;37.93;21.97;;;;;;;2.46;100.00;99994.63;4983486;28;20049;-73
2020/12/08 00:29:18;;;;;;;36.97;21.20;;;;;;;2.48;100.00;99986.78;5012844;28;20061;-75
2020/12/08 00:31:44;;;;;;;34.37;20.47;;;;;;;2.49;100.00;99980.72;5020302;28;20368;-75
2020/12/08 00:34:11;;;;;;;37.10;20.33;;;;;;;2.49;100.00;99972.88;5028859;28;20053;-73
2020/12/08 00:36:38;;;;;;;36.53;20.30;;;;;;;2.47;100.00;99974.63;5000177;28;20033;-73
2020/12/08 00:39:04;;;;;;;34.60;20.00;;;;;;;2.48;100.00;99984.19;5021206;28;20046;-73
2020/12/08 00:41:30;;;;;;;34.90;21.10;;;;;;;2.46;100.00;99981.59;4998249;28;20041;-73
2020/12/08 00:43:57;;;;;;;34.87;19.83;;;;;;;2.48;100.00;99987.66;5010650;28;20442;-70
2020/12/08 00:46:24;;;;;;;46.50;25.07;;;;;;;2.54;100.00;99977.25;5066458;23;20694;-70
2020/12/08 00:48:50;;;;;;;47.30;25.70;;;;;;;2.63;100.00;99986.81;5068935;28;20082;-70
2020/12/08 00:51:17;;;;;;;42.87;25.40;;;;;;;2.66;100.00;99973.75;5067616;28;20392;-70
2020/12/08 00:53:43;;;;;;;43.73;23.43;;;;;;;2.68;100.00;99977.25;5067014;28;20119;-70
2020/12/08 00:56:11;;;;;;;46.30;25.60;;;;;;;2.78;100.00;99989.44;5067310;28;20047;-70
2020/12/08 00:58:37;;;;;;;43.27;25.13;;;;;;;2.82;100.00;99985.94;5066877;28;20040;-70
2020/12/08 01:01:05;;;;;;;43.17;23.83;;;;;;;2.84;100.00;99988.53;5062989;28;20043;-70
2020/12/08 01:03:32;;;;;;;44.33;24.13;;;;;;;2.88;100.00;99981.63;5066455;28;20675;-70
2020/12/08 01:05:59;;;;;;;43.53;23.13;;;;;;;2.89;100.00;99983.34;5066513;28;20041;-70
2020/12/08 01:08:25;;;;;;;50.60;26.07;;;;;;;2.93;100.00;99982.47;5066877;28;20043;-69
2020/12/08 01:10:52;;;;;;;45.10;26.33;;;;;;;3.01;100.00;99981.59;5066340;28;20102;-70
2020/12/08 01:13:19;;;;;;;39.53;24.00;;;;;;;3.00;100.00;99984.19;5063218;28;20548;-70
2020/12/08 01:15:45;;;;;;;46.13;23.93;;;;;;;3.03;100.00;99979.00;5068943;28;20033;-70
2020/12/08 01:18:11;;;;;;;45.53;23.73;;;;;;;3.06;100.00;99973.75;5068088;28;20064;-70
2020/12/08 01:20:38;;;;;;;45.43;25.20;;;;;;;3.09;100.00;99973.75;5067118;28;20086;-70
2020/12/08 01:23:04;;;;;;;41.77;25.50;;;;;;;3.10;100.00;99976.34;5068061;28;20098;-70
2020/12/08 01:25:32;;;;;;;47.80;26.50;;;;;;;3.12;100.00;99968.53;5046737;28;20029;-70
2020/12/08 01:27:59;;;;;;;44.07;24.77;;;;;;;3.15;100.00;99967.66;5066074;28;20551;-70
2020/12/08 01:30:25;;;;;;;45.27;25.43;;;;;;;3.14;100.00;99969.41;5067734;28;20033;-70
2020/12/08 01:32:52;;;;;;;44.57;25.70;;;;;;;3.12;100.00;99963.31;5068070;28;20071;-70
2020/12/08 01:35:18;;;;;;;40.40;23.90;;;;;;;3.14;100.00;99958.97;5067873;28;20044;-70
2020/12/08 01:37:45;;;;;;;39.77;23.97;;;;;;;3.16;100.00;99953.75;5066873;28;20040;-70
2020/12/08 01:40:12;;;;;;;43.73;24.87;;;;;;;3.17;100.00;99947.63;5068347;28;20123;-71
2020/12/08 01:42:38;;;;;;;38.63;23.70;;;;;;;3.18;100.00;99945.03;5058472;28;20110;-71
2020/12/08 01:45:05;;;;;;;43.77;22.93;;;;;;;3.18;100.00;99951.97;5066418;28;20100;-70
2020/12/08 01:47:31;;;;;;;44.90;24.07;;;;;;;3.17;100.00;99953.72;5048132;28;20063;-70
2020/12/08 01:49:58;;;;;;;38.63;23.67;;;;;;;3.17;100.00;99961.56;5067625;28;20045;-70
2020/12/08 01:52:25;;;;;;;41.57;24.33;;;;;;;3.18;100.00;99957.19;5066835;28;20043;-70
2020/12/08 01:54:53;;;;;;;44.37;25.30;;;;;;;3.21;100.00;99962.44;5072690;28;20036;-70
2020/12/08 01:57:19;;;;;;;41.47;24.60;;;;;;;3.21;100.00;99957.22;5061876;28;20095;-70
2020/12/08 01:59:46;;;;;;;44.40;25.10;;;;;;;3.22;100.00;99951.13;5088628;28;20476;-70
2020/12/08 02:02:12;;;;;;;44.30;24.33;;;;;;;3.20;100.00;99958.97;5065668;28;20101;-70
2020/12/08 02:04:39;;;;;;;39.53;22.50;;;;;;;3.19;100.00;99957.19;5064103;28;20037;-70
2020/12/08 02:07:05;;;;;;;38.03;21.93;;;;;;;3.22;100.00;99965.03;5065491;28;20044;-70
2020/12/08 02:09:35;;;;;;;41.40;21.73;;;;;;;3.20;100.00;99958.09;5067341;28;20094;-70
2020/12/08 02:12:02;;;;;;;44.10;25.30;;;;;;;3.20;100.00;99963.31;5067761;28;20086;-70
2020/12/08 02:14:28;;;;;;;41.87;24.17;;;;;;;3.19;100.00;99959.81;5066444;28;20044;-70
2020/12/08 02:16:54;;;;;;;40.97;23.57;;;;;;;3.25;100.00;99969.38;5067857;28;20045;-70
2020/12/08 02:19:20;;;;;;;41.23;24.40;;;;;;;3.26;100.00;99960.66;5065336;28;20036;-70
2020/12/08 02:21:46;;;;;;;37.53;21.63;;;;;;;3.19;100.00;99962.41;5063644;28;20067;-70
2020/12/08 02:24:16;;;;;;;43.40;23.80;;;;;;;3.25;100.00;99964.16;5059091;28;20571;-70
2020/12/08 02:26:43;;;;;;;43.40;23.67;;;;;;;3.23;100.00;99958.06;5067854;28;20382;-70
2020/12/08 02:29:10;;;;;;;38.90;23.57;;;;;;;3.22;100.00;99952.00;5065635;28;20040;-70
2020/12/08 02:31:37;;;;;;;40.40;22.70;;;;;;;3.25;100.00;99962.41;5064374;28;20040;-70
2020/12/08 02:34:03;;;;;;;41.00;23.70;;;;;;;3.21;100.00;99968.53;5068087;28;20435;-70
2020/12/08 02:36:29;;;;;;;38.87;24.13;;;;;;;3.19;100.00;99974.59;5067619;28;20036;-70
2020/12/08 02:38:56;;;;;;;40.73;23.40;;;;;;;3.17;100.00;99977.22;5066376;28;20083;-70
2020/12/08 02:41:24;;;;;;;42.50;24.03;;;;;;;3.21;100.00;99975.50;5067311;28;20098;-70
2020/12/08 02:43:52;;;;;;;37.93;22.40;;;;;;;3.19;100.00;99979.81;5066299;28;20051;-72
2020/12/08 02:46:18;;;;;;;42.67;23.87;;;;;;;3.17;100.00;99981.56;5056134;28;20087;-72
2020/12/08 02:48:47;;;;;;;37.53;22.83;;;;;;;3.19;100.00;99985.91;5066040;28;20047;-72
2020/12/08 02:51:18;;;;;;;39.80;23.63;;;;;;;3.19;100.00;99979.81;5065920;28;20047;-72
2020/12/08 02:53:44;;;;;;;40.30;23.20;;;;;;;3.20;100.00;99992.03;5065597;28;20094;-72
2020/12/08 02:56:10;;;;;;;39.50;23.33;;;;;;;3.15;100.00;99997.25;5066818;28;20039;-72
2020/12/08 02:58:37;;;;;;;40.80;22.60;;;;;;;3.18;100.00;99988.53;5064933;28;20753;-72
2020/12/08 03:01:05;;;;;;;38.80;23.17;;;;;;;3.16;100.00;99990.28;5065577;28;20040;-72
2020/12/08 03:03:31;;;;;;;47.67;24.03;;;;;;;3.15;100.00;99997.25;5047299;28;20746;-72
2020/12/08 03:05:57;;;;;;;41.27;25.60;;;;;;;3.15;100.00;99994.63;5061330;28;20134;-72
2020/12/08 03:08:23;;;;;;;38.60;23.37;;;;;;;3.13;100.00;99988.56;5067044;28;20036;-72
2020/12/08 03:10:49;;;;;;;40.50;23.07;;;;;;;3.12;100.00;99993.78;5065937;28;20759;-72
2020/12/08 03:13:16;;;;;;;40.80;22.33;;;;;;;3.15;100.00;99993.75;5067446;28;20094;-72
2020/12/08 03:15:42;;;;;;;41.67;22.73;;;;;;;3.15;100.00;99993.75;5054029;28;20033;-71
2020/12/08 03:18:08;;;;;;;42.43;22.93;;;;;;;3.14;100.00;99992.03;5049893;28;20626;-71
2020/12/08 03:20:34;;;;;;;40.80;24.00;;;;;;;3.12;100.00;99997.25;5070529;28;20414;-71
2020/12/08 03:23:00;;;;;;;36.17;21.47;;;;;;;3.09;100.00;99989.41;5070195;28;20204;-71
2020/12/08 03:25:26;;;;;;;42.70;24.43;;;;;;;3.12;100.00;99991.16;5052614;28;20036;-72
2020/12/08 03:27:52;;;;;;;43.27;23.53;;;;;;;3.16;100.00;99982.44;5069595;28;20240;-72
2020/12/08 03:30:19;;;;;;;43.20;24.23;;;;;;;3.12;100.00;99985.94;5068725;28;20098;-71
2020/12/08 03:32:45;;;;;;;40.43;23.53;;;;;;;3.14;100.00;99979.84;5070137;28;20060;-72
2020/12/08 03:35:12;;;;;;;41.47;24.23;;;;;;;3.09;100.00;99973.75;5052920;28;20044;-72
2020/12/08 03:37:38;;;;;;;40.10;22.33;;;;;;;3.08;100.00;99974.63;5071010;28;20405;-72
2020/12/08 03:40:05;;;;;;;39.93;22.60;;;;;;;3.08;100.00;99974.63;5052595;28;20482;-72
2020/12/08 03:42:31;;;;;;;41.30;23.10;;;;;;;3.03;100.00;99968.56;5068321;28;20501;-71
2020/12/08 03:44:58;;;;;;;38.90;23.70;;;;;;;2.99;100.00;99967.69;5067910;28;20032;-72
2020/12/08 03:47:24;;;;;;;41.73;23.20;;;;;;;2.98;100.00;99965.06;5065867;28;20497;-72
2020/12/08 03:49:50;;;;;;;41.37;23.57;;;;;;;3.02;100.00;99961.56;5068575;28;20049;-72
2020/12/08 03:52:16;;;;;;;42.97;25.03;;;;;;;2.94;100.00;99952.88;5068804;28;20045;-71
2020/12/08 03:54:42;;;;;;;40.20;22.13;;;;;;;2.90;100.00;99959.00;5068477;28;20090;-71
2020/12/08 03:57:08;;;;;;;39.83;21.50;;;;;;;2.86;100.00;99957.25;5069691;28;20043;-71
2020/12/08 03:59:34;;;;;;;39.80;23.03;;;;;;;2.86;100.00;99957.25;5068721;28;20502;-72
2020/12/08 04:02:01;;;;;;;45.30;24.53;;;;;;;2.87;100.00;99959.88;5068332;28;20477;-72
2020/12/08 04:04:27;;;;;;;42.27;23.83;;;;;;;2.86;100.00;99971.19;5068781;28;20546;-71
2020/12/08 04:06:53;;;;;;;39.43;24.80;;;;;;;2.85;100.00;99969.41;5069729;28;20048;-70
2020/12/08 04:09:19;;;;;;;45.23;23.60;;;;;;;2.94;100.00;99968.53;5068725;28;20060;-70
2020/12/08 04:11:45;;;;;;;43.83;24.77;;;;;;;2.92;100.00;99972.91;5068785;28;20086;-70
2020/12/08 04:14:12;;;;;;;43.20;24.40;;;;;;;2.89;100.00;99970.31;5069920;28;20033;-70
2020/12/08 04:16:38;;;;;;;42.00;23.87;;;;;;;2.87;100.00;99977.25;5069820;28;20059;-70
2020/12/08 04:19:05;;;;;;;41.50;23.10;;;;;;;2.88;100.00;99979.00;5066112;28;20441;-70
2020/12/08 04:21:33;;;;;;;41.30;24.47;;;;;;;2.87;100.00;99990.31;5058822;28;20067;-70
2020/12/08 04:24:00;;;;;;;40.57;23.37;;;;;;;2.90;100.00;99993.78;5068000;28;20044;-70
2020/12/08 04:26:28;;;;;;;39.13;21.73;;;;;;;2.88;100.00;99995.53;5067365;28;20075;-70
2020/12/08 04:28:54;;;;;;;41.63;23.17;;;;;;;2.82;100.00;99991.16;5066604;28;20102;-70
2020/12/08 04:31:20;;;;;;;41.13;24.20;;;;;;;2.81;100.00;99994.66;5044582;28;20044;-70
2020/12/08 04:33:46;;;;;;;35.23;22.40;;;;;;;2.77;100.00;99992.03;5059459;28;20055;-70
2020/12/08 04:36:14;;;;;;;39.23;22.63;;;;;;;2.75;100.00;99999.84;5067647;28;20427;-69
2020/12/08 04:38:41;;;;;;;40.27;23.00;;;;;;;2.81;100.00;100004.22;5068203;28;20397;-70
2020/12/08 04:41:08;;;;;;;46.90;24.70;;;;;;;2.73;100.00;100001.59;5067376;28;20106;-70
2020/12/08 04:43:38;;;;;;;40.20;24.20;;;;;;;2.71;100.00;100005.94;5067707;28;20036;-70
2020/12/08 04:46:04;;;;;;;38.80;22.13;;;;;;;2.74;100.00;100002.47;5061266;28;20116;-70
2020/12/08 04:48:31;;;;;;;40.97;23.87;;;;;;;2.74;100.00;100002.47;5067810;28;20439;-70
2020/12/08 04:50:58;;;;;;;43.10;23.37;;;;;;;2.73;100.00;99991.16;5068230;28;20071;-70
2020/12/08 04:53:24;;;;;;;40.73;22.33;;;;;;;2.71;100.00;99981.59;5068400;28;20129;-70
2020/12/08 04:55:50;;;;;;;39.93;23.23;;;;;;;2.71;100.00;99981.59;5068674;28;20029;-70
2020/12/08 04:58:17;;;;;;;38.80;23.80;;;;;;;2.66;100.00;99976.38;5067086;28;20554;-70
2020/12/08 05:00:44;;;;;;;39.07;23.67;;;;;;;2.66;100.00;99975.50;5067490;28;20117;-70
2020/12/08 05:03:10;;;;;;;37.30;22.97;;;;;;;2.72;100.00;99976.38;5066582;28;20078;-70
2020/12/08 05:05:41;;;;;;;43.70;24.10;;;;;;;2.67;100.00;99985.94;5062142;28;20500;-70
2020/12/08 05:08:08;;;;;;;41.70;23.27;;;;;;;2.64;100.00;99985.06;5066924;28;20489;-70
2020/12/08 05:10:35;;;;;;;39.70;23.50;;;;;;;2.65;100.00;99986.81;5063737;28;20090;-70
2020/12/08 05:13:01;;;;;;;45.20;23.00;;;;;;;2.62;100.00;99981.59;5042608;28;20033;-71
2020/12/08 05:15:27;;;;;;;42.20;23.77;;;;;;;2.65;100.00;99982.47;5068707;28;20070;-70
2020/12/08 05:18:04;;;;;;;40.90;23.37;;;;;;;2.62;100.00;99987.69;5067186;28;20106;-70
2020/12/08 05:20:30;;;;;;;41.27;23.77;;;;;;;2.58;100.00;99980.72;5066906;28;20037;-70
2020/12/08 05:22:57;;;;;;;40.50;22.07;;;;;;;2.56;100.00;99995.50;5068642;28;20094;-70
2020/12/08 05:25:26;;;;;;;36.93;21.77;;;;;;;2.54;100.00;99992.03;5065276;28;20517;-70
2020/12/08 05:27:57;;;;;;;38.03;22.37;;;;;;;2.56;100.00;99992.03;5051074;28;20094;-70
2020/12/08 05:30:27;;;;;;;37.67;22.53;;;;;;;2.58;100.00;99992.88;5066617;28;20512;-70
2020/12/08 05:32:54;;;;;;;42.73;24.10;;;;;;;2.58;100.00;99990.28;5067526;28;20040;-70
2020/12/08 05:35:23;;;;;;;39.27;23.00;;;;;;;2.57;100.00;99985.94;5067157;28;20032;-70
2020/12/08 05:37:51;;;;;;;38.97;22.47;;;;;;;2.52;100.00;99984.22;5066817;28;20089;-70
2020/12/08 05:40:25;;;;;;;41.10;22.97;;;;;;;2.54;100.00;99990.28;5067050;28;20499;-70
2020/12/08 05:42:53;;;;;;;42.78;22.15;;;;;;;2.50;100.00;100004.16;5064253;28;20048;-70
2020/12/08 05:45:22;;;;;;;39.07;22.07;;;;;;;2.49;100.00;99997.22;5057964;28;20493;-70
2020/12/08 05:47:54;;;;;;;43.80;22.60;;;;;;;2.50;100.00;100005.91;5065242;28;20417;-70
2020/12/08 05:50:23;;;;;;;36.77;22.33;;;;;;;2.59;100.00;99994.63;5057172;28;20496;-70
2020/12/08 05:52:52;;;;;;;40.63;23.87;;;;;;;2.54;100.00;99994.63;5065618;28;20127;-70
2020/12/08 05:55:23;;;;;;;40.07;23.87;;;;;;;2.57;100.00;99997.22;5060972;28;20037;-70
2020/12/08 05:57:50;;;;;;;39.50;23.17;;;;;;;2.56;99.87;99999.84;5065494;28;20045;-70
2020/12/08 06:00:26;;;;;;;37.83;21.10;;;;;;;2.53;100.00;100006.81;5067269;28;20071;-70
2020/12/08 06:03:07;;;;;;;38.20;21.90;;;;;;;2.46;100.00;100002.44;5055251;28;20039;-70
2020/12/08 06:05:34;;;;;;;39.97;23.00;;;;;;;2.46;100.00;100012.00;5064968;28;20478;-70
2020/12/08 06:08:12;;;;;;;33.30;20.10;;;;;;;2.43;100.00;100017.19;5065274;28;20114;-69
2020/12/08 06:10:54;;;;;;;39.23;22.03;;;;;;;2.43;100.00;100020.66;5064976;28;20037;-69
2020/12/08 06:13:27;;;;;;;38.63;22.83;;;;;;;2.43;100.00;100023.28;5034869;28;20047;-71
2020/12/08 06:15:53;;;;;;;38.53;22.87;;;;;;;2.42;100.00;100021.53;5065021;28;20144;-70
2020/12/08 06:18:37;;;;;;;37.73;20.80;;;;;;;2.40;100.00;100030.22;5065615;28;20033;-70
2020/12/08 06:21:16;;;;;;;40.80;22.05;;;;;;;2.37;100.00;100023.28;5052565;28;20041;-70
2020/12/08 06:23:46;;;;;;;38.07;22.47;;;;;;;2.38;100.00;100038.06;5065336;28;20089;-70
2020/12/08 06:26:12;;;;;;;43.00;23.17;;;;;;;2.36;100.00;100041.53;5064991;28;20508;-69
2020/12/08 06:28:38;;;;;;;37.17;21.93;;;;;;;2.34;100.00;100033.69;5064567;28;20113;-70
2020/12/08 06:31:07;;;;;;;37.10;21.23;;;;;;;2.34;100.00;100036.28;5065520;28;20275;-70
2020/12/08 06:33:53;;;;;;;42.93;22.70;;;;;;;2.40;100.00;100040.66;5064941;28;20219;-72
2020/12/08 06:36:23;;;;;;;39.60;23.17;;;;;;;2.35;100.00;100045.84;5063887;28;20153;-72
2020/12/08 06:39:04;;;;;;;40.17;22.03;;;;;;;2.30;100.00;100042.38;5063775;28;20421;-72
2020/12/08 06:41:35;;;;;;;41.77;23.83;;;;;;;2.30;100.00;100042.38;5061945;28;20044;-72
2020/12/08 06:44:04;;;;;;;40.13;22.70;;;;;;;2.28;100.00;100049.31;5060827;28;20686;-72
2020/12/08 06:46:32;;;;;;;42.13;23.20;;;;;;;2.26;100.00;100057.09;5065994;28;20033;-71
2020/12/08 06:49:03;;;;;;;38.60;21.60;;;;;;;2.25;100.00;100057.97;5064534;28;20036;-72
2020/12/08 06:51:30;;;;;;;40.33;22.93;;;;;;;2.26;100.00;100067.53;5065643;28;20086;-72
2020/12/08 06:53:56;;;;;;;41.43;23.07;;;;;;;2.25;100.00;100076.22;5067501;28;20139;-72
2020/12/08 06:56:29;;;;;;;37.33;22.27;;;;;;;2.22;100.00;100073.63;5063457;28;20563;-72
2020/12/08 06:58:55;;;;;;;40.07;23.70;;;;;;;2.27;100.00;100068.44;5057347;28;20040;-72
2020/12/08 07:01:21;;;;;;;36.90;22.47;;;;;;;2.22;100.00;100070.13;5069585;28;20052;-72
2020/12/08 07:03:48;;;;;;;42.33;23.27;;;;;;;2.26;100.00;100069.28;5071250;28;20044;-71
2020/12/08 07:06:14;;;;;;;39.13;22.57;;;;;;;2.20;100.00;100062.31;5069564;28;20048;-72
2020/12/08 07:08:45;;;;;;;37.60;22.50;;;;;;;2.25;100.00;100071.00;5048032;22;20050;-68
2020/12/08 07:11:23;;;;;;;43.13;23.17;;;;;;;2.18;100.00;100068.38;4985065;28;20039;-68
2020/12/08 07:14:02;;;;;;;41.70;22.80;;;;;;;2.19;100.00;100070.13;5004881;28;20046;-68
2020/12/08 07:16:29;;;;;;;36.43;22.97;;;;;;;2.17;100.00;100075.31;4990129;28;20039;-67
2020/12/08 07:18:56;;;;;;;41.23;23.83;;;;;;;2.17;100.00;100080.53;4990319;28;20057;-68
2020/12/08 07:21:24;;;;;;;40.93;24.13;;;;;;;2.19;100.00;100088.38;4989731;28;20038;-68
2020/12/08 07:24:06;;;;;;;40.47;23.80;;;;;;;2.17;100.00;100090.97;4990419;28;20125;-67
2020/12/08 07:26:32;;;;;;;42.57;23.23;;;;;;;2.14;100.00;100083.13;4990846;28;20035;-67
2020/12/08 07:28:59;;;;;;;40.47;21.97;;;;;;;2.19;100.00;100084.03;4987496;28;20122;-68
2020/12/08 07:31:27;;;;;;;41.37;23.40;;;;;;;2.14;100.00;100083.13;4968413;28;20522;-67
2020/12/08 07:33:54;;;;;;;43.27;22.47;;;;;;;2.11;100.00;100085.75;4990070;28;20116;-68
2020/12/08 07:36:24;;;;;;;40.33;22.47;;;;;;;2.11;100.00;100077.91;4990119;28;20113;-68
2020/12/08 07:38:53;;;;;;;41.53;24.87;;;;;;;2.12;100.00;100079.66;4991152;28;20042;-67
2020/12/08 07:41:27;;;;;;;37.77;22.00;;;;;;;2.11;100.00;100084.88;4990647;28;20053;-67
2020/12/08 07:43:56;;;;;;;37.08;20.33;;;;;;;2.10;100.00;100099.63;4991427;28;20053;-67
2020/12/08 07:46:29;;;;;;;36.70;20.43;;;;;;;2.10;100.00;100094.44;4971504;28;20038;-68
2020/12/08 07:49:07;;;;;;;40.23;23.60;;;;;;;2.09;100.00;100091.78;4991678;28;20069;-68
2020/12/08 07:51:35;;;;;;;37.30;22.60;;;;;;;2.21;99.96;100104.88;4990091;28;20097;-68
2020/12/08 07:54:02;;;;;;;41.37;22.23;;;;;;;2.17;99.97;100103.13;5006666;28;20049;-68
2020/12/08 07:56:30;;;;;;;40.57;21.80;;;;;;;2.14;99.87;100098.78;4990978;28;20041;-68
2020/12/08 07:58:56;;;;;;;36.77;21.80;;;;;;;2.15;100.00;100100.50;5012405;28;20050;-68
2020/12/08 08:01:23;;;;;;;39.87;21.80;;;;;;;2.16;100.00;100104.84;4998541;28;20054;-67
2020/12/08 08:03:49;;;;;;;43.87;23.73;;;;;;;2.17;99.81;100103.13;5005169;28;20057;-68
2020/12/08 08:06:17;;;;;;;42.17;22.97;;;;;;;2.19;99.64;100114.44;4989335;28;20096;-67
2020/12/08 08:08:45;;;;;;;44.70;24.17;;;;;;;2.22;99.42;100102.28;5003093;28;20511;-67
2020/12/08 08:11:11;;;;;;;39.83;22.23;;;;;;;2.25;99.67;100104.88;4989132;28;20527;-68
2020/12/08 08:13:37;;;;;;;35.67;21.00;;;;;;;2.31;99.74;100111.00;4989459;28;20109;-67
2020/12/08 08:16:03;;;;;;;37.67;23.07;;;;;;;2.32;99.11;100110.13;4990772;28;20040;-68
2020/12/08 08:18:31;;;;;;;43.07;23.27;;;;;;;2.34;98.18;100113.63;4989544;28;20403;-67
2020/12/08 08:20:59;;;;;;;38.93;21.27;;;;;;;2.38;98.11;100116.25;4990465;28;20053;-68
2020/12/08 08:23:25;;;;;;;40.67;22.43;;;;;;;2.41;97.65;100110.16;4989310;28;20049;-68
2020/12/08 08:25:52;;;;;;;37.00;20.33;;;;;;;2.43;97.70;100111.91;5005089;28;20034;-68
2020/12/08 08:28:19;;;;;;;38.83;21.93;;;;;;;2.50;97.57;100118.03;4989232;28;20042;-68
2020/12/08 08:30:45;;;;;;;38.53;22.30;;;;;;;2.49;97.29;100113.69;4976726;28;20047;-68
2020/12/08 08:33:14;;;;;;;43.23;23.77;;;;;;;2.46;96.80;100116.28;4989987;28;20038;-68
2020/12/08 08:35:40;;;;;;;35.57;21.07;;;;;;;2.52;97.32;100121.50;5005145;28;20092;-68
2020/12/08 08:38:06;;;;;;;36.60;20.93;;;;;;;2.57;97.53;100119.78;5010379;28;20100;-68
2020/12/08 08:40:32;;;;;;;31.87;20.17;;;;;;;2.63;97.50;100129.38;4996811;28;20100;-68
2020/12/08 08:42:59;;;;;;;38.37;22.73;;;;;;;2.64;96.22;100131.13;4990771;28;20066;-68
2020/12/08 08:45:26;;;;;;;42.20;24.33;;;;;;;2.55;96.08;100134.56;4989000;28;20088;-67
2020/12/08 08:47:52;;;;;;;40.63;23.73;;;;;;;2.59;96.03;100122.41;4990677;28;20046;-67
2020/12/08 08:50:19;;;;;;;41.60;23.37;;;;;;;2.69;95.95;100124.16;5016781;28;20046;-68
2020/12/08 08:52:45;;;;;;;44.30;24.60;;;;;;;2.75;95.09;100135.47;5005504;28;20097;-68
2020/12/08 08:55:11;;;;;;;42.37;23.93;;;;;;;2.74;95.08;100138.09;4976578;28;20035;-68
2020/12/08 08:57:38;;;;;;;41.97;24.07;;;;;;;2.76;94.80;100138.97;4990037;28;20065;-69
2020/12/08 09:00:07;;;;;;;40.43;23.10;;;;;;;2.83;94.85;100139.00;4984483;28;20495;-68
2020/12/08 09:02:33;;;;;;;45.47;25.83;;;;;;;2.82;94.64;100145.06;4989832;28;20059;-67
2020/12/08 09:04:59;;;;;;;44.23;24.43;;;;;;;2.82;93.86;100142.47;5003971;28;20049;-68
2020/12/08 09:07:28;;;;;;;43.57;24.77;;;;;;;2.90;94.11;100146.84;4987776;28;20046;-68
2020/12/08 09:09:55;;;;;;;42.53;23.47;;;;;;;3.05;93.26;100133.81;5009653;28;20101;-67
2020/12/08 09:12:22;;;;;;;41.23;24.57;;;;;;;3.17;93.01;100138.19;5001848;28;20066;-68
2020/12/08 09:14:49;;;;;;;44.07;26.33;;;;;;;3.31;92.84;100129.50;5002672;28;20042;-67
2020/12/08 09:17:16;;;;;;;42.63;24.87;;;;;;;3.79;92.57;100119.91;4988388;28;20092;-68
2020/12/08 09:19:42;;;;;;;41.13;23.67;;;;;;;4.76;86.88;100113.41;4989105;28;20038;-67
2020/12/08 09:22:08;;;;;;;36.10;22.37;;;;;;;5.11;83.49;100121.94;5003881;28;20443;-67
2020/12/08 09:24:34;;;;;;;41.80;23.97;;;;;;;5.56;81.30;100116.34;5004167;28;20085;-67
2020/12/08 09:27:03;;;;;;;38.53;23.77;;;;;;;6.11;79.12;100113.19;4989142;28;20104;-68
2020/12/08 09:29:29;;;;;;;41.03;24.70;;;;;;;6.48;75.90;100123.28;5003632;28;20042;-68
2020/12/08 09:31:56;;;;;;;33.08;21.77;;;;;;;7.22;74.77;100123.97;4988716;28;20046;-68
2020/12/08 09:34:26;;;;;;;36.85;22.45;;;;;;;7.62;71.77;100124.19;4987844;28;20030;-68
2020/12/08 09:36:53;;;;;;;39.22;23.38;;;;;;;7.80;70.06;100123.00;4987653;28;20104;-68
2020/12/08 09:39:20;;;;;;;34.95;22.48;;;;;;;7.64;69.99;100113.66;4987801;28;20065;-68
2020/12/08 09:41:46;;;;;;;35.30;22.55;;;;;;;7.63;69.07;100117.19;4987466;28;20042;-69
2020/12/08 09:44:12;;;;;;;37.78;23.75;;;;;;;7.75;69.92;100111.72;5017870;28;20364;-69
2020/12/08 09:46:39;;;;;;;40.88;24.17;;;;;;;7.89;68.27;100109.69;4989127;28;20187;-69
2020/12/08 09:49:06;;;;;;;39.60;23.60;;;;;;;7.85;67.20;100110.66;4989253;28;20393;-68
2020/12/08 09:51:32;;;;;;;39.47;25.27;;;;;;;7.35;70.42;100108.91;5002282;28;20089;-68
2020/12/08 09:53:58;;;;;;;38.22;25.75;;;;;;;7.02;70.45;100118.16;5003967;28;20046;-68
2020/12/08 09:56:25;;;;;;;36.83;24.58;;;;;;;6.45;72.87;100116.28;4990544;28;20739;-69
2020/12/08 09:58:54;;;;;;;40.75;25.23;;;;;;;5.71;75.91;100111.84;5000377;28;20113;-68
2020/12/08 10:01:33;;;;;;;41.77;25.60;;;;;;;5.51;77.28;100105.03;4983147;28;20034;-68
2020/12/08 10:04:00;;;;;;;43.40;26.50;;;;;;;5.20;77.89;100104.41;4987599;28;20129;-68
2020/12/08 10:06:27;;;;;;;39.70;24.67;;;;;;;5.20;79.61;100104.41;5003431;28;20035;-68
2020/12/08 10:08:56;;;;;;;42.27;27.10;;;;;;;5.10;80.27;100113.22;4993820;28;20045;-67
2020/12/08 10:11:23;;;;;;;42.93;26.47;;;;;;;4.81;80.58;100116.03;4993426;28;20108;-68
2020/12/08 10:13:51;;;;;;;40.93;25.37;;;;;;;4.74;81.77;100120.41;5000988;28;20042;-68
2020/12/08 10:16:20;;;;;;;43.90;27.10;;;;;;;4.80;81.42;100127.38;4987564;28;20058;-68
2020/12/08 10:18:47;;;;;;;42.77;26.00;;;;;;;4.90;81.12;100130.81;4986964;28;20038;-68
2020/12/08 10:21:14;;;;;;;41.33;24.47;;;;;;;5.00;80.21;100122.88;4986928;28;20038;-68
2020/12/08 10:23:41;;;;;;;45.10;26.80;;;;;;;4.96;80.50;100130.75;4989599;28;20069;-68
2020/12/08 10:26:09;;;;;;;44.27;27.47;;;;;;;5.12;79.31;100131.53;4999609;28;20030;-68
2020/12/08 10:28:35;;;;;;;44.73;25.43;;;;;;;5.48;78.54;100126.03;4991823;28;20577;-67
2020/12/08 10:31:02;;;;;;;41.70;26.03;;;;;;;5.77;77.64;100119.66;4982048;28;20068;-67
2020/12/08 10:33:28;;;;;;;41.37;24.53;;;;;;;6.21;75.49;100119.19;4991353;28;20050;-67
2020/12/08 10:35:54;;;;;;;40.43;24.67;;;;;;;7.21;72.26;100111.72;5008222;28;20042;-68
2020/12/08 10:38:20;;;;;;;43.40;25.25;;;;;;;8.14;70.85;100122.38;5003357;28;20108;-68
2020/12/08 10:40:46;;;;;;;35.55;23.77;;;;;;;9.03;69.48;100111.75;4992161;28;20038;-68
2020/12/08 10:43:12;;;;;;;35.17;24.02;;;;;;;9.95;63.85;100105.97;4992161;28;20038;-69
2020/12/08 10:45:59;;;;;;;34.47;23.02;;;;;;;10.36;61.54;100112.81;4990792;28;20741;-69
2020/12/08 10:48:25;;;;;;;37.28;23.48;;;;;;;10.19;61.47;100109.75;4991283;28;20030;-69
2020/12/08 10:50:51;;;;;;;34.20;23.55;;;;;;;10.66;59.26;100114.53;4991402;28;20107;-68
2020/12/08 10:53:17;;;;;;;35.88;24.77;;;;;;;11.34;59.25;100107.16;4991952;28;20464;-68
2020/12/08 10:55:43;;;;;;;34.78;24.13;;;;;;;11.00;57.56;100105.59;4991920;28;20035;-68
2020/12/08 10:58:09;;;;;;;34.90;23.50;;;;;;;11.00;57.25;100093.25;5009374;28;20046;-69
2020/12/08 11:00:36;;;;;;;34.22;24.10;;;;;;;11.20;59.28;100094.41;5012369;28;20635;-68
2020/12/08 11:03:03;;;;;;;38.17;25.25;;;;;;;11.48;57.93;100100.53;4991527;28;20101;-67
2020/12/08 11:05:29;;;;;;;30.27;22.65;;;;;;;11.71;57.00;100094.47;4990328;28;20112;-68
2020/12/08 11:07:55;;;;;;;31.33;22.00;;;;;;;12.19;56.53;100098.09;4991577;28;20407;-69
2020/12/08 11:10:21;;;;;;;30.52;22.83;;;;;;;11.76;53.97;100096.94;5002725;28;20039;-69
2020/12/08 11:12:47;;;;;;;32.70;25.00;;;;;;;11.10;55.21;100098.22;4982909;28;20057;-68
2020/12/08 11:15:14;;;;;;;31.65;22.52;;;;;;;10.58;58.37;100103.34;5006701;28;20044;-69